Sofia Airport

Airport
ICAO code: 
LBSF
IATA Code: 
SOF
Summary
ICAO Region: 
EUR
Territory: 
Location: 
Sofia, Sofia-Capital
Serving: 
Sofia
Elevation: 
1742 ft
Coordinates: 
Aerial View: 
42° 41' 43.692" N, 23° 24' 56.808" E
Airport RE: 
Aquaplaning
Airport WX: 
Cumulonimbus
Metar
Observation
LBSF 011300Z 31009KT CAVOK 05/M01 Q1013 NOSIG
Station
Sofia Observ.
Date/Time
2021-12-01 13:00:00
Wind direction
310°
Wind speed
09 kts
Lowest cloud amount
clouds and visibility OK
Temperature
5°C
Dew point
-1°C
Humidity
65%
QNH
1013 hPa
Weather condition
n/a

International airport serving the capital of Bulgaria.

Climatology

Humid “subtropical” climate (Köppen climate classification Cfa)

Runways

Designator Length Width Surface Rops
9/27 2800 45 ASP Yes/Yes
Airport map: 
Aerial View: 

Accidents and Serious Incidents at or in the vicinity of LBSF

SKYbrary Partners:

Safety knowledge contributed by: